createdAt,value
2023-02-27T00:00:16.536Z,99.90
2023-02-27T00:02:46.756Z,99.90
2023-02-27T00:05:17.402Z,99.90
2023-02-27T00:07:44.554Z,99.90
2023-02-27T00:10:24.341Z,99.90
2023-02-27T00:12:51.208Z,99.90
2023-02-27T00:15:20.219Z,99.90
2023-02-27T00:17:49.917Z,99.90
2023-02-27T00:20:19.615Z,99.90
2023-02-27T00:22:47.004Z,99.90
2023-02-27T00:25:15.056Z,99.90
2023-02-27T00:27:42.668Z,99.90
2023-02-27T00:30:13.433Z,99.90
2023-02-27T00:32:41.173Z,99.90
2023-02-27T00:35:11.850Z,99.90
2023-02-27T00:37:40.063Z,99.90
2023-02-27T00:40:08.265Z,99.90
2023-02-27T00:42:35.797Z,99.90
2023-02-27T00:45:14.516Z,99.90
2023-02-27T00:47:43.410Z,99.90
2023-02-27T00:50:11.940Z,99.90
2023-02-27T00:52:39.397Z,99.90
2023-02-27T00:55:09.790Z,99.90
2023-02-27T00:57:36.904Z,99.90
2023-02-27T01:00:06.270Z,99.90
2023-02-27T01:02:34.548Z,99.90
2023-02-27T01:05:01.726Z,99.90
2023-02-27T01:07:31.851Z,99.90
2023-02-27T01:09:59.020Z,99.90
2023-02-27T01:12:25.949Z,99.90
2023-02-27T01:14:52.845Z,99.90
2023-02-27T01:17:24.894Z,99.90
2023-02-27T01:19:51.872Z,99.90
2023-02-27T01:22:18.716Z,99.90
2023-02-27T01:24:48.010Z,99.90
2023-02-27T01:27:16.238Z,99.90
2023-02-27T01:29:43.110Z,99.90
2023-02-27T01:32:10.179Z,99.90
2023-02-27T01:34:36.993Z,99.90
2023-02-27T01:37:03.822Z,99.90
2023-02-27T01:39:32.792Z,99.90
2023-02-27T01:42:02.048Z,99.90
2023-02-27T01:44:31.514Z,99.90
2023-02-27T01:46:58.368Z,99.90
2023-02-27T01:49:33.574Z,99.90
2023-02-27T01:52:10.940Z,99.90
2023-02-27T01:54:44.985Z,99.90
2023-02-27T01:57:11.823Z,99.90
2023-02-27T01:59:42.076Z,99.90
2023-02-27T02:02:21.313Z,99.90
2023-02-27T02:04:49.933Z,99.90
2023-02-27T02:07:21.058Z,99.90
2023-02-27T02:09:52.914Z,99.90
2023-02-27T02:12:26.987Z,99.90
2023-02-27T02:14:53.753Z,99.90
2023-02-27T02:18:02.504Z,99.90
2023-02-27T02:21:14.506Z,99.90
2023-02-27T02:24:18.008Z,99.90
2023-02-27T02:27:18.972Z,99.90
2023-02-27T02:30:22.564Z,99.90
2023-02-27T02:33:23.343Z,99.90
2023-02-27T02:36:14.379Z,99.90
2023-02-27T02:39:11.964Z,99.90
2023-02-27T02:42:04.992Z,99.90
2023-02-27T02:44:42.616Z,99.90
2023-02-27T02:47:44.197Z,99.90
2023-02-27T02:50:26.002Z,99.90
2023-02-27T02:53:13.294Z,99.90
2023-02-27T02:56:09.017Z,99.90
2023-02-27T02:59:02.447Z,99.90
2023-02-27T03:01:40.794Z,99.90
2023-02-27T03:04:35.414Z,99.90
2023-02-27T03:07:35.967Z,99.90
2023-02-27T03:10:17.897Z,99.90
2023-02-27T03:12:58.219Z,99.90
2023-02-27T03:15:40.771Z,99.90
2023-02-27T03:18:22.824Z,99.90
2023-02-27T03:20:59.688Z,99.90
2023-02-27T03:23:44.350Z,99.90
2023-02-27T03:26:18.456Z,99.90
2023-02-27T03:29:14.126Z,99.90
2023-02-27T03:32:14.382Z,99.90
2023-02-27T03:34:43.030Z,99.90
2023-02-27T03:37:56.913Z,99.90
2023-02-27T03:40:48.707Z,99.90
2023-02-27T03:43:44.661Z,99.90
2023-02-27T03:46:18.237Z,99.90
2023-02-27T03:48:48.455Z,99.90
2023-02-27T03:51:23.735Z,99.90
2023-02-27T03:54:04.840Z,99.90
2023-02-27T03:57:06.016Z,99.90
2023-02-27T03:59:35.534Z,99.90
2023-02-27T04:02:04.766Z,99.90
2023-02-27T04:04:33.857Z,99.90
2023-02-27T04:07:24.266Z,99.90
2023-02-27T04:10:31.495Z,99.90
2023-02-27T04:13:37.491Z,99.90
2023-02-27T04:16:13.370Z,99.90
2023-02-27T04:19:09.921Z,99.90
2023-02-27T04:21:58.005Z,99.90
2023-02-27T04:24:58.132Z,99.90
2023-02-27T04:27:40.123Z,99.90
2023-02-27T04:30:34.445Z,99.90
2023-02-27T04:33:09.238Z,99.90
2023-02-27T04:35:52.734Z,99.90
2023-02-27T04:38:27.590Z,99.90
2023-02-27T04:41:20.984Z,99.90
2023-02-27T04:43:50.279Z,99.90
2023-02-27T04:46:22.759Z,99.90
2023-02-27T04:48:59.408Z,99.90
2023-02-27T04:51:39.534Z,99.90
2023-02-27T04:54:16.218Z,99.90
2023-02-27T04:56:53.797Z,99.90
2023-02-27T04:59:27.692Z,99.90
2023-02-27T05:02:02.567Z,99.90
2023-02-27T05:04:38.327Z,99.90
2023-02-27T05:07:17.175Z,99.90
2023-02-27T05:09:54.061Z,99.90
2023-02-27T05:12:36.546Z,99.90
2023-02-27T05:15:32.550Z,99.90
2023-02-27T05:18:12.160Z,99.90
2023-02-27T05:21:15.413Z,99.90
2023-02-27T05:24:06.790Z,99.90
2023-02-27T05:27:12.499Z,99.90
2023-02-27T05:29:49.469Z,99.90
2023-02-27T05:32:50.159Z,99.90
2023-02-27T05:35:29.958Z,99.90
2023-02-27T05:38:14.755Z,99.90
2023-02-27T05:40:56.096Z,99.90
2023-02-27T05:43:36.639Z,99.90
2023-02-27T05:46:22.450Z,99.90
2023-02-27T05:48:59.202Z,99.90
2023-02-27T05:51:32.074Z,99.90
2023-02-27T05:54:11.606Z,99.90
2023-02-27T05:56:48.374Z,99.90
2023-02-27T05:59:29.406Z,99.90
2023-02-27T06:01:56.867Z,99.90
2023-02-27T06:04:28.260Z,99.90
2023-02-27T06:07:01.325Z,99.90
2023-02-27T06:09:29.073Z,99.90
2023-02-27T06:17:41.904Z,99.90
2023-02-27T06:20:10.143Z,99.90
2023-02-27T06:22:37.044Z,99.90
2023-02-27T06:25:04.146Z,99.90
2023-02-27T06:27:30.925Z,99.90
2023-02-27T06:29:57.655Z,99.90
2023-02-27T06:32:25.691Z,99.90
2023-02-27T06:34:53.513Z,99.90
2023-02-27T06:37:21.751Z,99.90
2023-02-27T06:39:48.591Z,99.90
2023-02-27T06:42:15.623Z,99.90
2023-02-27T06:44:42.469Z,99.90
2023-02-27T06:47:09.671Z,99.90
2023-02-27T06:49:36.626Z,99.90
2023-02-27T06:52:03.399Z,99.90
2023-02-27T06:54:30.224Z,99.90
2023-02-27T06:56:57.000Z,99.90
2023-02-27T06:59:24.110Z,99.90
2023-02-27T07:01:50.860Z,99.90
2023-02-27T07:04:18.400Z,99.90
2023-02-27T07:07:32.578Z,99.90
2023-02-27T07:09:32.343Z,99.90
2023-02-27T07:11:59.303Z,99.90
2023-02-27T07:14:26.037Z,99.90
2023-02-27T07:16:55.581Z,99.90
2023-02-27T07:19:23.867Z,99.90
2023-02-27T07:21:50.877Z,99.90
2023-02-27T07:24:17.764Z,99.90
2023-02-27T07:26:44.510Z,99.90
2023-02-27T07:29:11.452Z,99.90
2023-02-27T07:31:38.245Z,99.90
2023-02-27T07:34:04.997Z,99.90
2023-02-27T07:36:31.776Z,99.90
2023-02-27T07:38:58.699Z,99.90
2023-02-27T07:41:30.691Z,99.90
2023-02-27T07:43:58.179Z,99.90
2023-02-27T07:46:27.576Z,99.90
2023-02-27T07:48:55.142Z,99.90
2023-02-27T07:51:21.954Z,99.90
2023-02-27T07:53:48.677Z,99.90
2023-02-27T07:56:15.651Z,99.90
2023-02-27T07:58:42.354Z,99.90
2023-02-27T08:01:09.944Z,99.90
2023-02-27T08:03:36.695Z,99.90
2023-02-27T08:06:03.581Z,99.90
2023-02-27T08:08:30.314Z,99.90
2023-02-27T08:10:57.056Z,99.90
2023-02-27T08:13:55.766Z,99.90
2023-02-27T08:16:10.614Z,99.90
2023-02-27T08:18:37.420Z,99.40
2023-02-27T08:21:07.268Z,99.50
2023-02-27T08:23:34.538Z,98.60
2023-02-27T08:26:03.003Z,97.90
2023-02-27T08:28:29.872Z,97.80
2023-02-27T08:30:56.651Z,96.70
2023-02-27T08:33:24.138Z,96.40
2023-02-27T08:35:50.938Z,96.30
2023-02-27T08:38:17.714Z,95.40
2023-02-27T08:40:44.481Z,94.70
2023-02-27T08:43:11.182Z,94.80
2023-02-27T08:45:38.118Z,94.20
2023-02-27T08:48:05.166Z,93.80
2023-02-27T08:50:31.907Z,92.80
2023-02-27T08:52:58.628Z,92.10
2023-02-27T08:55:25.411Z,92.50
2023-02-27T08:57:52.176Z,91.90
2023-02-27T09:00:19.691Z,91.70
2023-02-27T09:02:46.474Z,91.60
2023-02-27T09:05:13.484Z,90.50
2023-02-27T09:07:40.228Z,87.40
2023-02-27T09:10:07.574Z,85.40
2023-02-27T09:12:34.422Z,83.10
2023-02-27T09:15:01.166Z,80.80
2023-02-27T09:17:27.896Z,81.50
2023-02-27T09:19:57.241Z,80.40
2023-02-27T09:22:24.943Z,79.80
2023-02-27T09:24:51.868Z,82.50
2023-02-27T09:27:18.573Z,82.70
2023-02-27T09:29:45.282Z,81.80
2023-02-27T09:32:12.394Z,83.10
2023-02-27T09:34:39.242Z,83.60
2023-02-27T09:37:05.968Z,85.50
2023-02-27T09:39:32.782Z,84.70
2023-02-27T09:42:11.591Z,84.60
2023-02-27T09:45:07.336Z,82.10
2023-02-27T09:47:50.758Z,83.60
2023-02-27T09:50:40.732Z,83.90
2023-02-27T09:53:26.809Z,84.20
2023-02-27T09:55:57.625Z,86.20
2023-02-27T09:59:01.368Z,85.30
2023-02-27T10:01:39.306Z,84.70
2023-02-27T10:04:22.066Z,85.70
2023-02-27T10:07:21.854Z,88.10
2023-02-27T10:10:09.653Z,85.40
2023-02-27T10:12:49.482Z,83.60
2023-02-27T10:15:29.438Z,86.60
2023-02-27T10:18:25.525Z,82.10
2023-02-27T10:21:12.502Z,86.30
2023-02-27T10:23:57.720Z,84.30
2023-02-27T10:26:33.110Z,85.40
2023-02-27T10:29:15.056Z,84.40
2023-02-27T10:31:44.568Z,84.50
2023-02-27T10:34:16.385Z,83.00
2023-02-27T10:36:46.633Z,84.40
2023-02-27T10:39:18.055Z,84.60
2023-02-27T10:41:46.760Z,86.20
2023-02-27T10:44:20.372Z,85.30
2023-02-27T10:46:51.346Z,85.20
2023-02-27T10:49:21.812Z,86.60
2023-02-27T10:52:11.062Z,86.30
2023-02-27T10:54:39.049Z,85.20
2023-02-27T10:57:30.530Z,84.80
2023-02-27T11:00:05.879Z,84.60
2023-02-27T11:02:41.737Z,85.80
2023-02-27T11:05:24.646Z,84.70
2023-02-27T11:07:51.806Z,85.00
2023-02-27T11:10:26.323Z,86.20
2023-02-27T11:13:21.610Z,85.80
2023-02-27T11:16:16.827Z,85.60
2023-02-27T11:18:49.922Z,87.40
2023-02-27T11:21:30.683Z,89.90
2023-02-27T11:24:06.659Z,89.60
2023-02-27T11:26:37.730Z,90.20
2023-02-27T11:29:07.226Z,91.00
2023-02-27T11:31:37.799Z,90.80
2023-02-27T11:34:08.201Z,90.70
2023-02-27T11:36:42.562Z,90.70
2023-02-27T11:39:31.354Z,91.40
2023-02-27T11:42:16.466Z,91.10
2023-02-27T11:44:55.992Z,91.90
2023-02-27T11:47:34.549Z,91.80
2023-02-27T11:50:31.124Z,92.60
2023-02-27T11:53:32.227Z,92.70
2023-02-27T11:56:03.502Z,93.10
2023-02-27T11:58:42.732Z,93.60
2023-02-27T12:01:25.573Z,94.60
2023-02-27T12:04:06.991Z,96.20
2023-02-27T12:06:45.214Z,96.70
2023-02-27T12:09:28.662Z,96.90
2023-02-27T12:11:57.024Z,97.70
2023-02-27T12:14:48.564Z,97.60
2023-02-27T12:17:34.926Z,98.10
2023-02-27T12:20:21.301Z,97.40
2023-02-27T12:22:52.546Z,97.40
2023-02-27T12:25:52.618Z,98.30
2023-02-27T12:28:57.569Z,98.60
2023-02-27T12:31:36.261Z,97.70
2023-02-27T12:34:12.015Z,97.60
2023-02-27T12:36:39.013Z,97.50
2023-02-27T12:39:08.521Z,98.40
2023-02-27T12:41:57.490Z,98.20
2023-02-27T12:44:42.604Z,98.60
2023-02-27T12:47:31.934Z,99.40
2023-02-27T12:50:21.135Z,98.90
2023-02-27T12:52:56.468Z,99.80
2023-02-27T12:55:32.594Z,99.30
2023-02-27T12:58:45.150Z,99.90
2023-02-27T13:01:46.061Z,99.90
2023-02-27T13:04:43.317Z,99.90
2023-02-27T13:08:22.957Z,99.90
2023-02-27T13:11:21.810Z,99.90
2023-02-27T13:13:59.394Z,99.90
2023-02-27T13:16:35.643Z,99.90
2023-02-27T13:19:06.826Z,99.90
2023-02-27T13:21:48.373Z,99.90
2023-02-27T13:24:24.003Z,99.90
2023-02-27T13:27:02.277Z,99.90
2023-02-27T13:29:51.421Z,99.90
2023-02-27T13:32:44.621Z,99.90
2023-02-27T13:35:45.083Z,99.90
2023-02-27T13:38:33.865Z,99.90
2023-02-27T13:41:25.390Z,99.90
2023-02-27T13:43:54.001Z,99.90
2023-02-27T13:46:34.112Z,99.90
2023-02-27T13:49:20.062Z,99.90
2023-02-27T13:51:58.554Z,99.90
2023-02-27T13:54:41.316Z,99.90
2023-02-27T13:57:22.286Z,99.90
2023-02-27T14:00:08.886Z,99.90
2023-02-27T14:02:58.270Z,99.90
2023-02-27T14:05:35.311Z,99.90
2023-02-27T14:08:21.114Z,99.90
2023-02-27T14:11:16.711Z,99.90
2023-02-27T14:13:54.728Z,99.90
2023-02-27T14:16:39.917Z,99.90
2023-02-27T14:19:15.524Z,99.90
2023-02-27T14:21:51.303Z,99.90
2023-02-27T14:24:24.579Z,99.90
2023-02-27T14:26:53.518Z,99.90
2023-02-27T14:29:33.300Z,99.90
2023-02-27T14:32:06.762Z,99.90
2023-02-27T14:34:38.451Z,99.90
2023-02-27T14:37:13.376Z,99.90
2023-02-27T14:39:40.930Z,99.90
2023-02-27T14:42:26.018Z,99.90
2023-02-27T14:44:54.123Z,99.90
2023-02-27T14:47:35.014Z,99.90
2023-02-27T14:50:07.456Z,99.90
2023-02-27T14:52:43.070Z,99.90
2023-02-27T14:55:27.767Z,99.90
2023-02-27T14:57:58.089Z,99.90
2023-02-27T15:00:36.002Z,99.90
2023-02-27T15:03:19.261Z,99.90
2023-02-27T15:05:49.096Z,99.90
2023-02-27T15:08:21.606Z,99.90
2023-02-27T15:10:49.112Z,99.90
2023-02-27T15:13:35.011Z,99.90
2023-02-27T15:16:23.727Z,99.90
2023-02-27T15:19:15.385Z,99.90
2023-02-27T15:21:49.775Z,99.90
2023-02-27T15:24:35.225Z,99.90
2023-02-27T15:27:17.502Z,99.90
2023-02-27T15:29:55.256Z,99.90
2023-02-27T15:32:33.518Z,99.90
2023-02-27T15:35:26.720Z,99.90
2023-02-27T15:37:57.816Z,99.90
2023-02-27T15:40:28.913Z,99.90
2023-02-27T15:42:56.944Z,99.90
2023-02-27T15:45:36.200Z,99.90
2023-02-27T15:48:04.813Z,99.90
2023-02-27T15:50:36.963Z,99.90
2023-02-27T15:53:20.012Z,99.90
2023-02-27T15:56:19.346Z,99.90
2023-02-27T15:58:54.348Z,99.90
2023-02-27T16:01:32.345Z,99.90
2023-02-27T16:04:05.955Z,99.90
2023-02-27T16:06:40.783Z,99.90
2023-02-27T16:09:34.423Z,99.90
2023-02-27T16:12:24.517Z,99.90
2023-02-27T16:15:14.990Z,99.90
2023-02-27T16:17:55.425Z,99.90
2023-02-27T16:20:38.511Z,99.90
2023-02-27T16:23:27.463Z,99.90
2023-02-27T16:26:08.914Z,99.90
2023-02-27T16:29:03.656Z,99.90
2023-02-27T16:31:39.736Z,99.90
2023-02-27T16:34:45.568Z,99.90
2023-02-27T16:37:31.322Z,99.90
2023-02-27T16:39:58.025Z,99.90
2023-02-27T16:42:24.837Z,99.90
2023-02-27T16:44:51.696Z,99.90
2023-02-27T16:47:18.449Z,99.90
2023-02-27T16:49:46.292Z,99.90
2023-02-27T16:52:13.110Z,99.90
2023-02-27T16:54:39.842Z,99.90
2023-02-27T16:57:06.834Z,99.90
2023-02-27T16:59:40.403Z,99.90
2023-02-27T17:02:15.345Z,99.90
2023-02-27T17:04:47.858Z,99.90
2023-02-27T17:07:17.771Z,99.90
2023-02-27T17:09:46.439Z,99.90
2023-02-27T17:12:13.702Z,99.90
2023-02-27T17:14:40.469Z,99.90
2023-02-27T17:17:07.300Z,99.90
2023-02-27T17:19:34.478Z,99.90
2023-02-27T17:22:01.197Z,99.90
2023-02-27T17:24:28.091Z,99.90
2023-02-27T17:26:55.467Z,99.90
2023-02-27T17:29:23.882Z,99.90
2023-02-27T17:31:51.565Z,99.90
2023-02-27T17:34:18.485Z,99.90
2023-02-27T17:36:45.299Z,99.90
2023-02-27T17:39:16.822Z,99.90
2023-02-27T17:41:44.535Z,99.90
2023-02-27T17:44:12.499Z,99.90
2023-02-27T17:46:40.365Z,99.90
2023-02-27T17:49:07.585Z,99.90
2023-02-27T17:51:34.511Z,99.90
2023-02-27T17:54:03.533Z,99.90
2023-02-27T17:56:30.820Z,99.90
2023-02-27T17:58:57.978Z,99.90
2023-02-27T18:01:26.515Z,99.90
2023-02-27T18:03:54.726Z,99.90
2023-02-27T18:06:23.751Z,99.90
2023-02-27T18:08:51.083Z,99.90
2023-02-27T18:11:21.933Z,99.90
2023-02-27T18:13:50.416Z,99.90
2023-02-27T18:16:17.595Z,99.90
2023-02-27T18:18:44.779Z,99.90
2023-02-27T18:21:20.174Z,99.90
2023-02-27T18:23:49.561Z,99.90
2023-02-27T18:26:30.501Z,99.90
2023-02-27T18:29:06.973Z,99.90
2023-02-27T18:31:41.482Z,99.90
2023-02-27T18:34:09.242Z,99.90
2023-02-27T18:36:37.089Z,99.90
2023-02-27T18:39:06.012Z,99.90
2023-02-27T18:41:33.032Z,99.90
2023-02-27T18:43:59.915Z,99.90
2023-02-27T18:46:27.937Z,99.90
2023-02-27T18:48:55.316Z,99.90
2023-02-27T18:51:22.312Z,99.90
2023-02-27T18:53:56.733Z,99.90
2023-02-27T18:56:25.713Z,99.90
2023-02-27T18:58:54.030Z,99.90
2023-02-27T19:01:31.269Z,99.90
2023-02-27T19:04:01.605Z,99.90
2023-02-27T19:06:28.732Z,99.90
2023-02-27T19:08:55.808Z,99.90
2023-02-27T19:11:34.508Z,99.90
2023-02-27T19:14:08.651Z,99.90
2023-02-27T19:16:35.773Z,99.90
2023-02-27T19:19:04.916Z,99.90
2023-02-27T19:21:33.008Z,99.90
2023-02-27T19:24:00.945Z,99.90
2023-02-27T19:26:28.956Z,99.90
2023-02-27T19:28:56.730Z,99.90
2023-02-27T19:31:24.981Z,99.90
2023-02-27T19:33:52.452Z,99.90
2023-02-27T19:36:21.889Z,99.90
2023-02-27T19:38:49.692Z,99.90
2023-02-27T19:41:17.694Z,99.90
2023-02-27T19:43:45.678Z,99.90
2023-02-27T19:46:20.419Z,99.90
2023-02-27T19:48:47.541Z,99.90
2023-02-27T19:51:16.022Z,99.90
2023-02-27T19:53:48.306Z,99.90
2023-02-27T19:56:20.337Z,99.90
2023-02-27T19:58:48.188Z,99.90
2023-02-27T20:01:31.007Z,99.90
2023-02-27T20:03:59.154Z,99.90
2023-02-27T20:06:30.499Z,99.90
2023-02-27T20:08:58.858Z,99.90
2023-02-27T20:11:30.399Z,99.90
2023-02-27T20:13:57.695Z,99.90
2023-02-27T20:16:27.935Z,99.90
2023-02-27T20:18:55.153Z,99.90
2023-02-27T20:21:24.758Z,99.90
2023-02-27T20:23:52.040Z,99.90
2023-02-27T20:26:21.838Z,99.90
2023-02-27T20:28:52.112Z,99.90
2023-02-27T20:31:24.437Z,99.90
2023-02-27T20:33:51.918Z,99.90
2023-02-27T20:36:18.751Z,99.90
2023-02-27T20:38:45.960Z,99.90
2023-02-27T20:41:17.382Z,99.90
2023-02-27T20:43:44.924Z,99.90
2023-02-27T20:46:20.030Z,99.90
2023-02-27T20:48:47.105Z,99.90
2023-02-27T20:51:19.889Z,99.90
2023-02-27T20:53:51.254Z,99.90
2023-02-27T20:56:34.131Z,99.90
2023-02-27T20:59:04.045Z,99.90
2023-02-27T21:01:31.242Z,99.90
2023-02-27T21:03:59.663Z,99.90
2023-02-27T21:06:27.319Z,99.90
2023-02-27T21:08:56.667Z,99.90
2023-02-27T21:11:28.375Z,99.90
2023-02-27T21:13:58.369Z,99.90
2023-02-27T21:16:25.766Z,99.90
2023-02-27T21:18:56.366Z,99.90
2023-02-27T21:21:28.729Z,99.90
2023-02-27T21:23:55.949Z,99.90
2023-02-27T21:26:27.818Z,99.90
2023-02-27T21:29:02.479Z,99.90
2023-02-27T21:31:33.531Z,99.90
2023-02-27T21:34:03.152Z,99.90
2023-02-27T21:36:37.701Z,99.90
2023-02-27T21:39:07.455Z,99.90
2023-02-27T21:41:35.364Z,99.90
2023-02-27T21:44:06.772Z,99.90
2023-02-27T21:46:34.718Z,99.90
2023-02-27T21:49:01.946Z,99.90
2023-02-27T21:51:40.000Z,99.90
2023-02-27T21:54:11.501Z,99.90
2023-02-27T21:56:40.521Z,99.90
2023-02-27T21:59:07.518Z,99.90
2023-02-27T22:01:35.776Z,99.90
2023-02-27T22:04:02.673Z,99.90
2023-02-27T22:06:32.110Z,99.90
2023-02-27T22:09:04.736Z,99.90
2023-02-27T22:11:34.455Z,99.90
2023-02-27T22:14:01.325Z,99.90
2023-02-27T22:16:28.075Z,99.90
2023-02-27T22:18:55.013Z,99.90
2023-02-27T22:21:25.230Z,99.90
2023-02-27T22:23:55.144Z,99.90
2023-02-27T22:26:26.000Z,99.90
2023-02-27T22:28:53.089Z,99.90
2023-02-27T22:31:24.208Z,99.90
2023-02-27T22:33:55.420Z,99.90
2023-02-27T22:36:26.323Z,99.90
2023-02-27T22:38:53.312Z,99.90
2023-02-27T22:41:24.150Z,99.90
2023-02-27T22:43:51.677Z,99.90
2023-02-27T22:46:28.222Z,99.90
2023-02-27T22:49:00.968Z,99.90
2023-02-27T22:51:29.078Z,99.90
2023-02-27T22:53:59.537Z,99.90
2023-02-27T22:56:26.622Z,99.90
2023-02-27T22:58:53.809Z,99.90
2023-02-27T23:01:30.788Z,99.90
2023-02-27T23:04:01.926Z,99.90
2023-02-27T23:06:33.203Z,99.90
2023-02-27T23:09:01.819Z,99.90
2023-02-27T23:11:28.926Z,99.90
2023-02-27T23:13:56.278Z,99.90
2023-02-27T23:16:23.704Z,99.90
2023-02-27T23:18:55.693Z,99.90
2023-02-27T23:21:34.311Z,99.90
2023-02-27T23:24:07.646Z,99.90
2023-02-27T23:26:41.327Z,99.90
2023-02-27T23:29:09.813Z,99.90
2023-02-27T23:31:37.962Z,99.90
2023-02-27T23:34:06.585Z,99.90
2023-02-27T23:36:37.880Z,99.90
2023-02-27T23:39:06.299Z,99.90
2023-02-27T23:41:34.469Z,99.90
2023-02-27T23:44:01.599Z,99.90
2023-02-27T23:46:30.676Z,99.90
2023-02-27T23:49:01.836Z,99.90
2023-02-27T23:51:30.594Z,99.90
2023-02-27T23:53:58.661Z,99.90
2023-02-27T23:56:29.608Z,99.90
2023-02-27T23:59:03.728Z,99.90
